Aérodrome :
LOGIN :

S'inscrire | Disclaimer

   EN    FR    IT 

 










Légende :    VFR   VFR Marginal   IFR   IFR Intensif   IFR Très Intensif
Visi : 
Plafond : 
>= 8 km
>= 3000ft
5 à 8 km
1000 à 3000 ft
1500m à 5 km
500 à 1000 ft
800 à 1500m
200 à 500 ft
< 800m
< 200 ft
Symboles :   Orages  Brouillard  Fortes neiges  Fortes précipitations  Vent > 20 kt
SIGMETs :   Divers  Orages  Givrage  Turbulence  Onde Orograph.  Cendres Volcan.







- Altitude de l'aérodrome : 479 ft
- Code IATA : DOL
- Voir les cartes d'approche


LFRG - Deauville

DERNIER METAR :
  • 140800Z AUTO 24011KT 9999 OVC009/// ///TCU 04/02 Q1000 TEMPO 26025G38KT 2000 TSRAGS SCT010 BKN015CB

METARs EXPIRÉS :
  • 140730Z AUTO 24012KT 9999 FEW007/// SCT011/// BKN016/// ///CB 04/03 Q1000 TEMPO 26025G38KT 2000 TSRAGS
  • 140700Z AUTO 25014G27KT 210V300 9999 FEW022/// SCT043/// BKN062/// ///TCU 05/03 Q1000 TEMPO 26025G38KT 2000 TSRAGS SCT010 BKN015CB
  • 140630Z AUTO 23010KT 9999 FEW016 SCT062 BKN084 04/02 Q1000 TEMPO 26025G38KT 2000 TSRAGS SCT010 BKN015CB
  • 140600Z AUTO 25013KT 9999 SCT021/// BKN027/// BKN037/// ///CB 04/02 Q1000 TEMPO 26025G38KT 2000 TSRAGS
  • 140530Z AUTO 24012KT 9999 ///CB 05/02 Q1001 TEMPO 26025G38KT 2000 TSRAGS

TAF TAF LFRG
Valide du 14 à 06h jusqu'au 14 à 15h UTC


140500Z 1406/1415 26015G25KT 9999 BKN025
TEMPO 1406/1415 26025G38KT 3000 SHRAGS SCT012 BKN020CB
PROB40
TEMPO 1406/1415 2000 TSRAGS SCT010 BKN015CB
ATIS : +33 2 31 65 65 36
Pas de NOTAMs connus pour ce terrain.
2 SIGMETs publiés pour la FIR Paris (LFFF) :
 
Turbulence forte
LFFF SIGMET 5 VALID 140730/140900 LFPW
LFFF PARIS FIR/UIR SEV TURB OBS AT 0730Z NW OF LINE N4900 W00015 - N5100 E00230 SFC/FL060 STNR WKN=
Orages noyés dans la masse
LFFF SIGMET 4 VALID 140625/140830 LFPW
LFFF PARIS FIR/UIR EMBD TS OBS AT 0625Z WI N5000 W00015 - N5100 E00145 - N5000 E00215 - N4915 W00015 - N5000 W00015 TOP FL280 MOV E 40KT NC=



MET'MAP, la Météo Aéronautique d'un coup d'oeil ! - Copyright ORBIFLY Décembre 2007 - Disclaimer

ORBIFLY MET'MAP TEAM :

Programmation & Développement : Alexandra Zaïnal
Conception & Développement : Baudouin d'Aumeries
Co-Programmation & Développement : Marc-Olivier Méhu
Soutien technique & logistique : Manuel Goepfert

Contact : metmap@orbifly.com




SOURCES & CREDITS :

   NOAA